sensor_id;sensor_type;location;lat;lon;timestamp;P1;durP1;ratioP1;P2;durP2;ratioP2
71462;SDS011;59266;52.608;13.260;2023-04-06T00:00:48;11.95;;;4.80;;
71462;SDS011;59266;52.608;13.260;2023-04-06T00:03:15;12.32;;;4.80;;
71462;SDS011;59266;52.608;13.260;2023-04-06T00:05:43;9.80;;;4.53;;
71462;SDS011;59266;52.608;13.260;2023-04-06T00:08:11;11.60;;;4.82;;
71462;SDS011;59266;52.608;13.260;2023-04-06T00:10:38;9.65;;;3.75;;
71462;SDS011;59266;52.608;13.260;2023-04-06T00:13:05;9.45;;;3.97;;
71462;SDS011;59266;52.608;13.260;2023-04-06T00:15:33;12.43;;;4.75;;
71462;SDS011;59266;52.608;13.260;2023-04-06T00:18:00;12.30;;;4.97;;
71462;SDS011;59266;52.608;13.260;2023-04-06T00:20:27;9.90;;;4.18;;
71462;SDS011;59266;52.608;13.260;2023-04-06T00:22:53;10.68;;;4.78;;
71462;SDS011;59266;52.608;13.260;2023-04-06T00:25:20;12.43;;;4.20;;
71462;SDS011;59266;52.608;13.260;2023-04-06T00:27:47;11.07;;;4.38;;
71462;SDS011;59266;52.608;13.260;2023-04-06T00:30:14;12.82;;;4.63;;
71462;SDS011;59266;52.608;13.260;2023-04-06T00:32:41;11.93;;;4.70;;
71462;SDS011;59266;52.608;13.260;2023-04-06T00:35:07;10.38;;;3.92;;
71462;SDS011;59266;52.608;13.260;2023-04-06T00:37:34;10.70;;;4.30;;
71462;SDS011;59266;52.608;13.260;2023-04-06T00:40:01;14.23;;;4.85;;
71462;SDS011;59266;52.608;13.260;2023-04-06T00:42:28;11.57;;;4.57;;
71462;SDS011;59266;52.608;13.260;2023-04-06T00:44:56;11.85;;;4.57;;
71462;SDS011;59266;52.608;13.260;2023-04-06T00:47:25;11.55;;;4.18;;
71462;SDS011;59266;52.608;13.260;2023-04-06T00:49:52;11.05;;;4.40;;
71462;SDS011;59266;52.608;13.260;2023-04-06T00:52:21;9.60;;;4.00;;
71462;SDS011;59266;52.608;13.260;2023-04-06T00:54:48;10.48;;;3.90;;
71462;SDS011;59266;52.608;13.260;2023-04-06T00:57:16;13.07;;;4.55;;
71462;SDS011;59266;52.608;13.260;2023-04-06T00:59:43;9.10;;;4.20;;
71462;SDS011;59266;52.608;13.260;2023-04-06T01:02:10;9.68;;;3.90;;
71462;SDS011;59266;52.608;13.260;2023-04-06T01:04:37;8.60;;;3.75;;
71462;SDS011;59266;52.608;13.260;2023-04-06T01:07:03;8.88;;;3.45;;
71462;SDS011;59266;52.608;13.260;2023-04-06T01:09:30;10.25;;;4.53;;
71462;SDS011;59266;52.608;13.260;2023-04-06T01:11:57;8.88;;;4.00;;
71462;SDS011;59266;52.608;13.260;2023-04-06T01:14:25;11.48;;;4.25;;
71462;SDS011;59266;52.608;13.260;2023-04-06T01:16:52;8.68;;;3.78;;
71462;SDS011;59266;52.608;13.260;2023-04-06T01:19:19;10.60;;;4.10;;
71462;SDS011;59266;52.608;13.260;2023-04-06T01:21:47;9.15;;;3.55;;
71462;SDS011;59266;52.608;13.260;2023-04-06T01:24:15;11.45;;;3.75;;
71462;SDS011;59266;52.608;13.260;2023-04-06T01:26:43;9.82;;;4.10;;
71462;SDS011;59266;52.608;13.260;2023-04-06T01:29:10;10.02;;;3.85;;
71462;SDS011;59266;52.608;13.260;2023-04-06T01:31:37;10.73;;;4.00;;
71462;SDS011;59266;52.608;13.260;2023-04-06T01:34:05;11.07;;;4.35;;
71462;SDS011;59266;52.608;13.260;2023-04-06T01:36:31;9.23;;;3.97;;
71462;SDS011;59266;52.608;13.260;2023-04-06T01:38:58;9.73;;;3.83;;
71462;SDS011;59266;52.608;13.260;2023-04-06T01:41:25;11.45;;;3.70;;
71462;SDS011;59266;52.608;13.260;2023-04-06T01:43:52;8.65;;;3.58;;
71462;SDS011;59266;52.608;13.260;2023-04-06T01:46:21;10.82;;;3.80;;
71462;SDS011;59266;52.608;13.260;2023-04-06T01:48:47;9.50;;;4.32;;
71462;SDS011;59266;52.608;13.260;2023-04-06T01:51:15;13.23;;;3.83;;
71462;SDS011;59266;52.608;13.260;2023-04-06T01:53:41;8.88;;;3.97;;
71462;SDS011;59266;52.608;13.260;2023-04-06T01:56:08;7.65;;;3.38;;
71462;SDS011;59266;52.608;13.260;2023-04-06T01:58:35;10.02;;;4.32;;
71462;SDS011;59266;52.608;13.260;2023-04-06T02:01:02;8.60;;;3.97;;
71462;SDS011;59266;52.608;13.260;2023-04-06T02:03:28;10.27;;;3.75;;
71462;SDS011;59266;52.608;13.260;2023-04-06T02:05:55;15.60;;;4.25;;
71462;SDS011;59266;52.608;13.260;2023-04-06T02:08:22;9.25;;;4.03;;
71462;SDS011;59266;52.608;13.260;2023-04-06T02:10:49;11.32;;;4.40;;
71462;SDS011;59266;52.608;13.260;2023-04-06T02:13:16;10.20;;;4.18;;
71462;SDS011;59266;52.608;13.260;2023-04-06T02:15:43;11.63;;;4.50;;
71462;SDS011;59266;52.608;13.260;2023-04-06T02:18:09;11.82;;;4.78;;
71462;SDS011;59266;52.608;13.260;2023-04-06T02:20:38;8.70;;;3.75;;
71462;SDS011;59266;52.608;13.260;2023-04-06T02:23:05;8.80;;;4.07;;
71462;SDS011;59266;52.608;13.260;2023-04-06T02:25:32;8.95;;;4.13;;
71462;SDS011;59266;52.608;13.260;2023-04-06T02:27:59;11.63;;;4.10;;
71462;SDS011;59266;52.608;13.260;2023-04-06T02:30:26;10.65;;;4.20;;
71462;SDS011;59266;52.608;13.260;2023-04-06T02:32:53;9.13;;;3.78;;
71462;SDS011;59266;52.608;13.260;2023-04-06T02:35:19;9.88;;;3.97;;
71462;SDS011;59266;52.608;13.260;2023-04-06T02:37:46;10.32;;;3.85;;
71462;SDS011;59266;52.608;13.260;2023-04-06T02:40:13;11.32;;;4.05;;
71462;SDS011;59266;52.608;13.260;2023-04-06T02:42:40;10.98;;;3.47;;
71462;SDS011;59266;52.608;13.260;2023-04-06T02:45:07;8.18;;;4.00;;
71462;SDS011;59266;52.608;13.260;2023-04-06T02:47:34;12.63;;;3.83;;
71462;SDS011;59266;52.608;13.260;2023-04-06T02:50:02;10.30;;;3.63;;
71462;SDS011;59266;52.608;13.260;2023-04-06T02:52:29;8.82;;;3.55;;
71462;SDS011;59266;52.608;13.260;2023-04-06T02:54:55;9.57;;;4.10;;
71462;SDS011;59266;52.608;13.260;2023-04-06T02:57:25;9.80;;;3.83;;
71462;SDS011;59266;52.608;13.260;2023-04-06T02:59:52;9.25;;;3.70;;
71462;SDS011;59266;52.608;13.260;2023-04-06T03:02:18;10.68;;;3.83;;
71462;SDS011;59266;52.608;13.260;2023-04-06T03:04:46;8.98;;;3.53;;
71462;SDS011;59266;52.608;13.260;2023-04-06T03:07:13;9.85;;;3.85;;
71462;SDS011;59266;52.608;13.260;2023-04-06T03:09:40;7.72;;;3.85;;
71462;SDS011;59266;52.608;13.260;2023-04-06T03:12:08;14.05;;;3.90;;
71462;SDS011;59266;52.608;13.260;2023-04-06T03:14:35;9.68;;;3.80;;
71462;SDS011;59266;52.608;13.260;2023-04-06T03:17:02;10.77;;;3.78;;
71462;SDS011;59266;52.608;13.260;2023-04-06T03:19:28;9.65;;;3.55;;
71462;SDS011;59266;52.608;13.260;2023-04-06T03:21:55;13.18;;;3.92;;
71462;SDS011;59266;52.608;13.260;2023-04-06T03:24:22;12.27;;;3.78;;
71462;SDS011;59266;52.608;13.260;2023-04-06T03:26:49;9.80;;;3.50;;
71462;SDS011;59266;52.608;13.260;2023-04-06T03:29:16;9.43;;;4.15;;
71462;SDS011;59266;52.608;13.260;2023-04-06T03:31:43;11.60;;;4.28;;
71462;SDS011;59266;52.608;13.260;2023-04-06T03:34:10;10.90;;;4.43;;
71462;SDS011;59266;52.608;13.260;2023-04-06T03:36:37;9.65;;;3.42;;
71462;SDS011;59266;52.608;13.260;2023-04-06T03:39:03;10.95;;;3.95;;
71462;SDS011;59266;52.608;13.260;2023-04-06T03:41:31;9.52;;;3.85;;
71462;SDS011;59266;52.608;13.260;2023-04-06T03:43:58;10.50;;;4.47;;
71462;SDS011;59266;52.608;13.260;2023-04-06T03:46:24;13.30;;;3.92;;
71462;SDS011;59266;52.608;13.260;2023-04-06T03:48:51;11.25;;;4.45;;
71462;SDS011;59266;52.608;13.260;2023-04-06T03:51:18;9.57;;;4.05;;
71462;SDS011;59266;52.608;13.260;2023-04-06T03:53:45;13.02;;;4.32;;
71462;SDS011;59266;52.608;13.260;2023-04-06T03:56:12;12.90;;;4.25;;
71462;SDS011;59266;52.608;13.260;2023-04-06T03:58:39;10.90;;;4.30;;
71462;SDS011;59266;52.608;13.260;2023-04-06T04:01:05;11.00;;;4.40;;
71462;SDS011;59266;52.608;13.260;2023-04-06T04:03:32;10.32;;;3.80;;
71462;SDS011;59266;52.608;13.260;2023-04-06T04:05:59;11.15;;;4.18;;
71462;SDS011;59266;52.608;13.260;2023-04-06T04:08:26;13.38;;;4.78;;
71462;SDS011;59266;52.608;13.260;2023-04-06T04:10:52;12.52;;;4.47;;
71462;SDS011;59266;52.608;13.260;2023-04-06T04:13:19;11.70;;;4.13;;
71462;SDS011;59266;52.608;13.260;2023-04-06T04:15:46;9.98;;;3.85;;
71462;SDS011;59266;52.608;13.260;2023-04-06T04:18:13;10.02;;;3.90;;
71462;SDS011;59266;52.608;13.260;2023-04-06T04:20:40;9.02;;;4.15;;
71462;SDS011;59266;52.608;13.260;2023-04-06T04:23:07;8.68;;;3.92;;
71462;SDS011;59266;52.608;13.260;2023-04-06T04:25:34;13.50;;;4.95;;
71462;SDS011;59266;52.608;13.260;2023-04-06T04:28:01;10.00;;;4.20;;
71462;SDS011;59266;52.608;13.260;2023-04-06T04:30:27;13.63;;;4.25;;
71462;SDS011;59266;52.608;13.260;2023-04-06T04:32:54;14.18;;;4.65;;
71462;SDS011;59266;52.608;13.260;2023-04-06T04:35:21;16.98;;;4.38;;
71462;SDS011;59266;52.608;13.260;2023-04-06T04:37:47;13.73;;;4.30;;
71462;SDS011;59266;52.608;13.260;2023-04-06T04:40:14;10.55;;;3.92;;
71462;SDS011;59266;52.608;13.260;2023-04-06T04:42:42;11.55;;;4.38;;
71462;SDS011;59266;52.608;13.260;2023-04-06T04:45:09;12.60;;;4.57;;
71462;SDS011;59266;52.608;13.260;2023-04-06T04:47:36;10.73;;;4.35;;
71462;SDS011;59266;52.608;13.260;2023-04-06T04:50:03;9.98;;;4.47;;
71462;SDS011;59266;52.608;13.260;2023-04-06T04:52:30;11.88;;;4.40;;
71462;SDS011;59266;52.608;13.260;2023-04-06T04:54:56;11.45;;;4.03;;
71462;SDS011;59266;52.608;13.260;2023-04-06T04:57:23;12.35;;;4.57;;
71462;SDS011;59266;52.608;13.260;2023-04-06T04:59:50;8.98;;;4.22;;
71462;SDS011;59266;52.608;13.260;2023-04-06T05:02:17;9.75;;;4.28;;
71462;SDS011;59266;52.608;13.260;2023-04-06T05:04:44;10.88;;;4.25;;
71462;SDS011;59266;52.608;13.260;2023-04-06T05:07:11;14.60;;;5.00;;
71462;SDS011;59266;52.608;13.260;2023-04-06T05:09:38;12.82;;;4.40;;
71462;SDS011;59266;52.608;13.260;2023-04-06T05:12:04;12.48;;;4.47;;
71462;SDS011;59266;52.608;13.260;2023-04-06T05:14:31;11.75;;;4.53;;
71462;SDS011;59266;52.608;13.260;2023-04-06T05:16:59;11.82;;;4.20;;
71462;SDS011;59266;52.608;13.260;2023-04-06T05:19:25;9.68;;;4.40;;
71462;SDS011;59266;52.608;13.260;2023-04-06T05:21:52;10.63;;;4.20;;
71462;SDS011;59266;52.608;13.260;2023-04-06T05:24:19;13.18;;;5.03;;
71462;SDS011;59266;52.608;13.260;2023-04-06T05:26:46;10.85;;;4.68;;
71462;SDS011;59266;52.608;13.260;2023-04-06T05:29:13;14.10;;;4.82;;
71462;SDS011;59266;52.608;13.260;2023-04-06T05:31:40;15.65;;;4.80;;
71462;SDS011;59266;52.608;13.260;2023-04-06T05:34:07;15.73;;;5.55;;
71462;SDS011;59266;52.608;13.260;2023-04-06T05:36:35;15.20;;;4.72;;
71462;SDS011;59266;52.608;13.260;2023-04-06T05:39:09;16.33;;;5.15;;
71462;SDS011;59266;52.608;13.260;2023-04-06T05:41:37;11.30;;;4.90;;
71462;SDS011;59266;52.608;13.260;2023-04-06T05:44:04;17.60;;;5.13;;
71462;SDS011;59266;52.608;13.260;2023-04-06T05:46:30;16.63;;;5.80;;
71462;SDS011;59266;52.608;13.260;2023-04-06T05:48:57;18.77;;;5.22;;
71462;SDS011;59266;52.608;13.260;2023-04-06T05:51:24;13.10;;;5.20;;
71462;SDS011;59266;52.608;13.260;2023-04-06T05:53:51;14.20;;;4.80;;
71462;SDS011;59266;52.608;13.260;2023-04-06T05:56:18;14.45;;;5.60;;
71462;SDS011;59266;52.608;13.260;2023-04-06T05:58:44;13.52;;;5.47;;
71462;SDS011;59266;52.608;13.260;2023-04-06T06:01:11;14.93;;;6.32;;
71462;SDS011;59266;52.608;13.260;2023-04-06T06:03:39;14.15;;;5.32;;
71462;SDS011;59266;52.608;13.260;2023-04-06T06:06:06;12.20;;;5.80;;
71462;SDS011;59266;52.608;13.260;2023-04-06T06:08:33;13.57;;;5.85;;
71462;SDS011;59266;52.608;13.260;2023-04-06T06:10:59;16.00;;;5.60;;
71462;SDS011;59266;52.608;13.260;2023-04-06T06:13:28;11.70;;;5.20;;
71462;SDS011;59266;52.608;13.260;2023-04-06T06:15:56;14.07;;;6.50;;
71462;SDS011;59266;52.608;13.260;2023-04-06T06:18:22;10.05;;;4.63;;
71462;SDS011;59266;52.608;13.260;2023-04-06T06:20:49;10.52;;;5.40;;
71462;SDS011;59266;52.608;13.260;2023-04-06T06:23:16;11.50;;;5.22;;
71462;SDS011;59266;52.608;13.260;2023-04-06T06:25:42;9.57;;;4.43;;
71462;SDS011;59266;52.608;13.260;2023-04-06T06:28:09;14.07;;;4.45;;
71462;SDS011;59266;52.608;13.260;2023-04-06T06:30:36;11.50;;;5.07;;
71462;SDS011;59266;52.608;13.260;2023-04-06T06:33:03;10.43;;;5.25;;
71462;SDS011;59266;52.608;13.260;2023-04-06T06:35:32;11.32;;;5.38;;
71462;SDS011;59266;52.608;13.260;2023-04-06T06:38:01;10.18;;;5.25;;
71462;SDS011;59266;52.608;13.260;2023-04-06T06:40:28;12.02;;;5.60;;
71462;SDS011;59266;52.608;13.260;2023-04-06T06:42:55;13.05;;;6.50;;
71462;SDS011;59266;52.608;13.260;2023-04-06T06:45:21;10.07;;;5.35;;
71462;SDS011;59266;52.608;13.260;2023-04-06T06:47:51;13.07;;;5.80;;
71462;SDS011;59266;52.608;13.260;2023-04-06T06:50:20;13.52;;;5.40;;
71462;SDS011;59266;52.608;13.260;2023-04-06T06:52:49;11.07;;;5.43;;
71462;SDS011;59266;52.608;13.260;2023-04-06T06:55:15;11.23;;;5.60;;
71462;SDS011;59266;52.608;13.260;2023-04-06T06:57:42;9.05;;;5.40;;
71462;SDS011;59266;52.608;13.260;2023-04-06T07:00:09;12.73;;;5.72;;
71462;SDS011;59266;52.608;13.260;2023-04-06T07:02:39;9.82;;;5.78;;
71462;SDS011;59266;52.608;13.260;2023-04-06T07:05:06;9.18;;;5.70;;
71462;SDS011;59266;52.608;13.260;2023-04-06T07:07:52;10.82;;;5.35;;
71462;SDS011;59266;52.608;13.260;2023-04-06T07:10:19;10.48;;;5.03;;
71462;SDS011;59266;52.608;13.260;2023-04-06T07:12:49;10.68;;;5.10;;
71462;SDS011;59266;52.608;13.260;2023-04-06T07:15:16;10.93;;;4.70;;
71462;SDS011;59266;52.608;13.260;2023-04-06T07:17:43;11.52;;;5.05;;
71462;SDS011;59266;52.608;13.260;2023-04-06T07:20:13;9.98;;;5.40;;
71462;SDS011;59266;52.608;13.260;2023-04-06T07:22:40;12.48;;;5.55;;
71462;SDS011;59266;52.608;13.260;2023-04-06T07:25:10;9.48;;;5.53;;
71462;SDS011;59266;52.608;13.260;2023-04-06T07:27:38;7.15;;;4.05;;
71462;SDS011;59266;52.608;13.260;2023-04-06T07:30:04;8.93;;;4.70;;
71462;SDS011;59266;52.608;13.260;2023-04-06T07:32:33;11.18;;;5.10;;
71462;SDS011;59266;52.608;13.260;2023-04-06T07:35:01;11.27;;;4.75;;
71462;SDS011;59266;52.608;13.260;2023-04-06T07:37:28;9.75;;;4.70;;
71462;SDS011;59266;52.608;13.260;2023-04-06T07:39:54;8.40;;;4.35;;
71462;SDS011;59266;52.608;13.260;2023-04-06T07:42:21;8.93;;;4.60;;
71462;SDS011;59266;52.608;13.260;2023-04-06T07:44:49;8.65;;;4.93;;
71462;SDS011;59266;52.608;13.260;2023-04-06T07:47:16;11.95;;;4.50;;
71462;SDS011;59266;52.608;13.260;2023-04-06T07:49:43;7.70;;;4.25;;
71462;SDS011;59266;52.608;13.260;2023-04-06T07:52:09;9.65;;;4.07;;
71462;SDS011;59266;52.608;13.260;2023-04-06T07:54:36;9.25;;;4.40;;
71462;SDS011;59266;52.608;13.260;2023-04-06T07:57:04;11.85;;;4.53;;
71462;SDS011;59266;52.608;13.260;2023-04-06T07:59:31;9.15;;;4.30;;
71462;SDS011;59266;52.608;13.260;2023-04-06T08:02:00;7.85;;;4.07;;
71462;SDS011;59266;52.608;13.260;2023-04-06T08:04:28;8.23;;;4.13;;
71462;SDS011;59266;52.608;13.260;2023-04-06T08:07:05;7.97;;;3.80;;
71462;SDS011;59266;52.608;13.260;2023-04-06T08:09:33;8.93;;;3.78;;
71462;SDS011;59266;52.608;13.260;2023-04-06T08:12:01;8.98;;;4.63;;
71462;SDS011;59266;52.608;13.260;2023-04-06T08:14:28;8.25;;;3.90;;
71462;SDS011;59266;52.608;13.260;2023-04-06T08:16:55;9.10;;;3.95;;
71462;SDS011;59266;52.608;13.260;2023-04-06T08:19:31;7.28;;;3.47;;
71462;SDS011;59266;52.608;13.260;2023-04-06T08:22:01;9.35;;;3.67;;
71462;SDS011;59266;52.608;13.260;2023-04-06T08:24:31;9.07;;;3.90;;
71462;SDS011;59266;52.608;13.260;2023-04-06T08:26:58;6.75;;;3.30;;
71462;SDS011;59266;52.608;13.260;2023-04-06T08:29:27;9.88;;;3.80;;
71462;SDS011;59266;52.608;13.260;2023-04-06T08:31:56;9.43;;;3.33;;
71462;SDS011;59266;52.608;13.260;2023-04-06T08:34:22;8.45;;;3.40;;
71462;SDS011;59266;52.608;13.260;2023-04-06T08:36:52;8.27;;;3.42;;
71462;SDS011;59266;52.608;13.260;2023-04-06T08:39:19;6.90;;;3.28;;
71462;SDS011;59266;52.608;13.260;2023-04-06T08:41:52;7.22;;;3.38;;
71462;SDS011;59266;52.608;13.260;2023-04-06T08:44:23;7.20;;;2.92;;
71462;SDS011;59266;52.608;13.260;2023-04-06T08:46:51;8.20;;;3.30;;
71462;SDS011;59266;52.608;13.260;2023-04-06T08:49:22;6.75;;;3.00;;
71462;SDS011;59266;52.608;13.260;2023-04-06T08:51:50;6.82;;;3.40;;
71462;SDS011;59266;52.608;13.260;2023-04-06T08:54:18;7.70;;;3.30;;
71462;SDS011;59266;52.608;13.260;2023-04-06T08:56:45;8.73;;;3.30;;
71462;SDS011;59266;52.608;13.260;2023-04-06T08:59:13;7.60;;;3.22;;
71462;SDS011;59266;52.608;13.260;2023-04-06T09:01:40;6.55;;;2.83;;
71462;SDS011;59266;52.608;13.260;2023-04-06T09:04:08;6.45;;;2.67;;
71462;SDS011;59266;52.608;13.260;2023-04-06T09:06:40;7.35;;;2.70;;
71462;SDS011;59266;52.608;13.260;2023-04-06T09:09:07;6.25;;;3.05;;
71462;SDS011;59266;52.608;13.260;2023-04-06T09:11:44;5.45;;;2.45;;
71462;SDS011;59266;52.608;13.260;2023-04-06T09:14:15;7.45;;;3.17;;
71462;SDS011;59266;52.608;13.260;2023-04-06T09:16:45;8.05;;;2.80;;
71462;SDS011;59266;52.608;13.260;2023-04-06T09:19:12;6.47;;;2.55;;
71462;SDS011;59266;52.608;13.260;2023-04-06T09:21:39;5.53;;;2.40;;
71462;SDS011;59266;52.608;13.260;2023-04-06T09:24:06;7.57;;;2.65;;
71462;SDS011;59266;52.608;13.260;2023-04-06T09:26:47;7.35;;;2.75;;
71462;SDS011;59266;52.608;13.260;2023-04-06T09:29:24;5.80;;;2.40;;
71462;SDS011;59266;52.608;13.260;2023-04-06T09:32:01;6.72;;;2.42;;
71462;SDS011;59266;52.608;13.260;2023-04-06T09:34:29;6.85;;;2.63;;
71462;SDS011;59266;52.608;13.260;2023-04-06T09:36:56;6.50;;;2.10;;
71462;SDS011;59266;52.608;13.260;2023-04-06T09:39:23;5.70;;;2.33;;
71462;SDS011;59266;52.608;13.260;2023-04-06T09:41:51;9.48;;;2.85;;
71462;SDS011;59266;52.608;13.260;2023-04-06T09:44:18;6.13;;;2.38;;
71462;SDS011;59266;52.608;13.260;2023-04-06T09:46:46;6.03;;;2.72;;
71462;SDS011;59266;52.608;13.260;2023-04-06T09:49:30;7.03;;;2.88;;
71462;SDS011;59266;52.608;13.260;2023-04-06T09:51:59;8.48;;;2.50;;
71462;SDS011;59266;52.608;13.260;2023-04-06T09:54:32;5.63;;;2.58;;
71462;SDS011;59266;52.608;13.260;2023-04-06T09:57:08;6.82;;;2.50;;
71462;SDS011;59266;52.608;13.260;2023-04-06T10:00:03;5.75;;;2.28;;
71462;SDS011;59266;52.608;13.260;2023-04-06T10:02:48;6.00;;;2.60;;
71462;SDS011;59266;52.608;13.260;2023-04-06T10:08:08;6.30;;;2.63;;
71462;SDS011;59266;52.608;13.260;2023-04-06T10:10:36;6.55;;;2.28;;
71462;SDS011;59266;52.608;13.260;2023-04-06T10:13:04;5.70;;;2.50;;
71462;SDS011;59266;52.608;13.260;2023-04-06T10:15:33;6.15;;;2.38;;
71462;SDS011;59266;52.608;13.260;2023-04-06T10:18:03;6.65;;;2.35;;
71462;SDS011;59266;52.608;13.260;2023-04-06T10:23:19;7.63;;;2.80;;
71462;SDS011;59266;52.608;13.260;2023-04-06T10:25:56;6.65;;;2.45;;
71462;SDS011;59266;52.608;13.260;2023-04-06T10:28:29;6.22;;;2.17;;
71462;SDS011;59266;52.608;13.260;2023-04-06T10:31:04;5.40;;;2.28;;
71462;SDS011;59266;52.608;13.260;2023-04-06T10:33:31;7.25;;;2.38;;
71462;SDS011;59266;52.608;13.260;2023-04-06T10:36:11;5.95;;;2.40;;
71462;SDS011;59266;52.608;13.260;2023-04-06T10:38:39;5.55;;;2.35;;
71462;SDS011;59266;52.608;13.260;2023-04-06T10:41:08;6.38;;;2.22;;
71462;SDS011;59266;52.608;13.260;2023-04-06T10:43:37;5.70;;;2.40;;
71462;SDS011;59266;52.608;13.260;2023-04-06T10:46:09;6.13;;;2.40;;
71462;SDS011;59266;52.608;13.260;2023-04-06T10:48:40;5.55;;;2.30;;
71462;SDS011;59266;52.608;13.260;2023-04-06T10:51:12;4.97;;;2.00;;
71462;SDS011;59266;52.608;13.260;2023-04-06T10:54:01;5.40;;;2.40;;
71462;SDS011;59266;52.608;13.260;2023-04-06T10:56:30;7.05;;;2.72;;
71462;SDS011;59266;52.608;13.260;2023-04-06T10:59:00;6.10;;;1.92;;
71462;SDS011;59266;52.608;13.260;2023-04-06T11:01:27;5.70;;;2.13;;
71462;SDS011;59266;52.608;13.260;2023-04-06T11:03:54;6.82;;;2.28;;
71462;SDS011;59266;52.608;13.260;2023-04-06T11:06:23;5.72;;;2.72;;
71462;SDS011;59266;52.608;13.260;2023-04-06T11:08:51;4.90;;;2.13;;
71462;SDS011;59266;52.608;13.260;2023-04-06T11:11:20;5.38;;;2.28;;
71462;SDS011;59266;52.608;13.260;2023-04-06T11:13:59;5.88;;;2.33;;
71462;SDS011;59266;52.608;13.260;2023-04-06T11:16:27;5.70;;;2.50;;
71462;SDS011;59266;52.608;13.260;2023-04-06T11:19:02;9.18;;;2.40;;
71462;SDS011;59266;52.608;13.260;2023-04-06T11:21:34;5.68;;;2.58;;
71462;SDS011;59266;52.608;13.260;2023-04-06T11:24:17;6.32;;;2.10;;
71462;SDS011;59266;52.608;13.260;2023-04-06T11:27:03;6.22;;;2.63;;
71462;SDS011;59266;52.608;13.260;2023-04-06T11:29:31;5.82;;;2.25;;
71462;SDS011;59266;52.608;13.260;2023-04-06T11:31:59;7.32;;;2.47;;
71462;SDS011;59266;52.608;13.260;2023-04-06T11:34:28;5.45;;;2.30;;
71462;SDS011;59266;52.608;13.260;2023-04-06T11:36:57;6.22;;;2.55;;
71462;SDS011;59266;52.608;13.260;2023-04-06T11:39:26;8.07;;;2.70;;
71462;SDS011;59266;52.608;13.260;2023-04-06T11:41:58;6.07;;;2.50;;
71462;SDS011;59266;52.608;13.260;2023-04-06T11:47:02;6.65;;;2.55;;
71462;SDS011;59266;52.608;13.260;2023-04-06T11:49:31;6.32;;;2.88;;
71462;SDS011;59266;52.608;13.260;2023-04-06T11:52:02;5.88;;;2.30;;
71462;SDS011;59266;52.608;13.260;2023-04-06T11:54:36;6.20;;;2.28;;
71462;SDS011;59266;52.608;13.260;2023-04-06T11:57:04;5.80;;;2.00;;
71462;SDS011;59266;52.608;13.260;2023-04-06T11:59:32;6.57;;;2.70;;
71462;SDS011;59266;52.608;13.260;2023-04-06T12:02:01;7.03;;;2.80;;
71462;SDS011;59266;52.608;13.260;2023-04-06T12:04:28;6.13;;;2.55;;
71462;SDS011;59266;52.608;13.260;2023-04-06T12:06:58;5.38;;;2.20;;
71462;SDS011;59266;52.608;13.260;2023-04-06T12:09:27;6.03;;;2.70;;
71462;SDS011;59266;52.608;13.260;2023-04-06T12:11:54;7.22;;;2.60;;
71462;SDS011;59266;52.608;13.260;2023-04-06T12:14:20;5.88;;;2.45;;
71462;SDS011;59266;52.608;13.260;2023-04-06T12:16:51;6.50;;;2.38;;
71462;SDS011;59266;52.608;13.260;2023-04-06T12:19:18;6.57;;;2.35;;
71462;SDS011;59266;52.608;13.260;2023-04-06T12:21:44;5.88;;;2.60;;
71462;SDS011;59266;52.608;13.260;2023-04-06T12:24:11;6.05;;;2.33;;
71462;SDS011;59266;52.608;13.260;2023-04-06T12:26:38;6.50;;;2.38;;
71462;SDS011;59266;52.608;13.260;2023-04-06T12:29:07;5.95;;;2.85;;
71462;SDS011;59266;52.608;13.260;2023-04-06T12:31:34;5.80;;;2.65;;
71462;SDS011;59266;52.608;13.260;2023-04-06T12:34:03;5.35;;;2.30;;
71462;SDS011;59266;52.608;13.260;2023-04-06T12:36:30;6.10;;;2.70;;
71462;SDS011;59266;52.608;13.260;2023-04-06T12:38:57;6.65;;;2.60;;
71462;SDS011;59266;52.608;13.260;2023-04-06T12:41:27;5.07;;;2.25;;
71462;SDS011;59266;52.608;13.260;2023-04-06T12:43:54;5.47;;;2.50;;
71462;SDS011;59266;52.608;13.260;2023-04-06T12:46:23;6.35;;;2.85;;
71462;SDS011;59266;52.608;13.260;2023-04-06T12:48:53;5.88;;;2.50;;
71462;SDS011;59266;52.608;13.260;2023-04-06T12:51:20;6.47;;;2.60;;
71462;SDS011;59266;52.608;13.260;2023-04-06T12:53:50;6.70;;;2.45;;
71462;SDS011;59266;52.608;13.260;2023-04-06T12:56:19;6.50;;;2.67;;
71462;SDS011;59266;52.608;13.260;2023-04-06T12:58:47;6.00;;;2.70;;
71462;SDS011;59266;52.608;13.260;2023-04-06T13:01:14;6.55;;;2.78;;
71462;SDS011;59266;52.608;13.260;2023-04-06T13:03:41;6.43;;;2.75;;
71462;SDS011;59266;52.608;13.260;2023-04-06T13:06:09;7.60;;;2.75;;
71462;SDS011;59266;52.608;13.260;2023-04-06T13:08:36;6.75;;;3.10;;
71462;SDS011;59266;52.608;13.260;2023-04-06T13:11:04;6.28;;;2.72;;
71462;SDS011;59266;52.608;13.260;2023-04-06T13:13:33;5.93;;;2.40;;
71462;SDS011;59266;52.608;13.260;2023-04-06T13:16:02;6.63;;;2.90;;
71462;SDS011;59266;52.608;13.260;2023-04-06T13:18:31;5.95;;;2.83;;
71462;SDS011;59266;52.608;13.260;2023-04-06T13:20:58;9.02;;;2.85;;
71462;SDS011;59266;52.608;13.260;2023-04-06T13:23:26;6.38;;;2.90;;
71462;SDS011;59266;52.608;13.260;2023-04-06T13:25:57;8.00;;;3.30;;
71462;SDS011;59266;52.608;13.260;2023-04-06T13:28:25;8.07;;;2.90;;
71462;SDS011;59266;52.608;13.260;2023-04-06T13:30:53;6.45;;;2.70;;
71462;SDS011;59266;52.608;13.260;2023-04-06T13:33:20;7.75;;;2.95;;
71462;SDS011;59266;52.608;13.260;2023-04-06T13:35:47;9.52;;;2.95;;
71462;SDS011;59266;52.608;13.260;2023-04-06T13:38:15;6.93;;;2.92;;
71462;SDS011;59266;52.608;13.260;2023-04-06T13:40:42;6.63;;;2.70;;
71462;SDS011;59266;52.608;13.260;2023-04-06T13:43:09;6.45;;;2.60;;
71462;SDS011;59266;52.608;13.260;2023-04-06T13:45:36;8.90;;;2.97;;
71462;SDS011;59266;52.608;13.260;2023-04-06T13:48:03;9.13;;;2.90;;
71462;SDS011;59266;52.608;13.260;2023-04-06T13:50:32;7.07;;;2.92;;
71462;SDS011;59266;52.608;13.260;2023-04-06T13:52:58;9.57;;;3.10;;
71462;SDS011;59266;52.608;13.260;2023-04-06T13:55:25;6.32;;;2.28;;
71462;SDS011;59266;52.608;13.260;2023-04-06T13:57:52;6.10;;;3.03;;
71462;SDS011;59266;52.608;13.260;2023-04-06T14:00:19;7.00;;;3.13;;
71462;SDS011;59266;52.608;13.260;2023-04-06T14:02:46;7.07;;;3.35;;
71462;SDS011;59266;52.608;13.260;2023-04-06T14:05:14;6.65;;;2.90;;
71462;SDS011;59266;52.608;13.260;2023-04-06T14:07:41;7.32;;;2.30;;
71462;SDS011;59266;52.608;13.260;2023-04-06T14:10:08;7.20;;;2.50;;
71462;SDS011;59266;52.608;13.260;2023-04-06T14:12:40;8.27;;;3.00;;
71462;SDS011;59266;52.608;13.260;2023-04-06T14:15:08;6.57;;;2.95;;
71462;SDS011;59266;52.608;13.260;2023-04-06T14:17:38;7.13;;;3.10;;
71462;SDS011;59266;52.608;13.260;2023-04-06T14:20:05;6.93;;;2.95;;
71462;SDS011;59266;52.608;13.260;2023-04-06T14:22:33;5.22;;;2.50;;
71462;SDS011;59266;52.608;13.260;2023-04-06T14:25:00;5.57;;;2.70;;
71462;SDS011;59266;52.608;13.260;2023-04-06T14:27:27;5.97;;;2.88;;
71462;SDS011;59266;52.608;13.260;2023-04-06T14:29:57;7.13;;;2.67;;
71462;SDS011;59266;52.608;13.260;2023-04-06T14:32:23;7.35;;;3.00;;
71462;SDS011;59266;52.608;13.260;2023-04-06T14:34:50;8.80;;;3.00;;
71462;SDS011;59266;52.608;13.260;2023-04-06T14:37:17;6.30;;;2.85;;
71462;SDS011;59266;52.608;13.260;2023-04-06T14:39:49;6.63;;;2.95;;
71462;SDS011;59266;52.608;13.260;2023-04-06T14:42:16;6.13;;;2.90;;
71462;SDS011;59266;52.608;13.260;2023-04-06T14:44:42;6.22;;;2.85;;